Time;durP1;ratioP1;P1;durP2;ratioP2;P2;SDS_P1;SDS_P2;PMS_P1;PMS_P2;Temp;Humidity;BMP_temperature;BMP_pressure;BME280_temperature;BME280_humidity;BME280_pressure;Samples;Min_cycle;Max_cycle;Signal;HPM_P1;HPM_P2
2023/08/29 00:01:05;;;;;;;80.10;10.35;;;;;;;25.31;47.71;99934.09;4993029;28;20110;-79
2023/08/29 00:03:33;;;;;;;100.18;12.10;;;;;;;25.32;47.47;99938.50;4993100;28;20487;-79
2023/08/29 00:06:02;;;;;;;118.13;12.77;;;;;;;25.32;47.56;99936.59;4992758;28;20026;-77
2023/08/29 00:08:27;;;;;;;134.63;13.98;;;;;;;25.30;47.73;99940.69;4941992;28;20448;-81
2023/08/29 00:10:56;;;;;;;33.75;7.63;;;;;;;25.26;47.80;99934.81;4992886;28;20030;-78
2023/08/29 00:13:23;;;;;;;29.30;6.35;;;;;;;25.18;47.92;99921.41;4992572;28;20037;-79
2023/08/29 00:15:48;;;;;;;22.95;8.15;;;;;;;25.30;47.64;99926.91;4975000;28;20022;-79
2023/08/29 00:18:13;;;;;;;16.65;6.05;;;;;;;25.23;47.55;99923.41;4992433;28;20096;-77
2023/08/29 00:20:39;;;;;;;12.65;5.78;;;;;;;25.27;47.63;99930.97;4992563;28;20026;-78
2023/08/29 00:23:04;;;;;;;17.55;6.22;;;;;;;25.22;47.71;99924.53;4992535;28;20398;-81
2023/08/29 00:25:30;;;;;;;16.63;6.63;;;;;;;25.17;47.78;99927.13;4992383;28;20907;-78
2023/08/29 00:27:55;;;;;;;18.55;6.32;;;;;;;25.13;47.98;99920.44;4992199;28;20037;-78
2023/08/29 00:30:21;;;;;;;17.50;6.50;;;;;;;25.17;48.15;99933.47;4992468;28;20027;-79
2023/08/29 00:32:46;;;;;;;15.68;7.13;;;;;;;25.23;47.93;99928.94;4974946;28;20026;-79
2023/08/29 00:35:11;;;;;;;14.70;5.82;;;;;;;25.19;48.24;99917.56;4992411;28;20137;-79
2023/08/29 00:37:37;;;;;;;11.95;7.05;;;;;;;25.18;48.16;99912.28;4992120;28;20030;-78
2023/08/29 00:40:03;;;;;;;15.10;7.03;;;;;;;25.27;48.64;99919.97;4991942;28;20022;-78
2023/08/29 00:42:29;;;;;;;10.23;6.38;;;;;;;25.29;48.48;99919.72;4992196;28;20034;-78
2023/08/29 00:44:54;;;;;;;16.15;7.22;;;;;;;25.23;48.79;99918.75;4991797;28;20031;-79
2023/08/29 00:47:20;;;;;;;13.98;6.55;;;;;;;25.20;48.78;99907.38;4991771;28;20039;-78
2023/08/29 00:49:45;;;;;;;34.47;7.43;;;;;;;25.19;49.04;99916.72;4992089;28;20022;-78
2023/08/29 00:52:11;;;;;;;17.08;6.95;;;;;;;25.17;49.03;99913.38;4992087;28;20049;-78
2023/08/29 00:54:37;;;;;;;15.35;6.00;;;;;;;25.11;49.11;99901.38;4991697;28;20026;-79
2023/08/29 00:57:02;;;;;;;12.02;6.53;;;;;;;25.08;49.28;99887.25;4992883;28;20446;-80
2023/08/29 00:59:28;;;;;;;17.67;6.45;;;;;;;25.13;49.41;99901.16;4992123;28;20455;-78
2023/08/29 01:01:53;;;;;;;24.15;7.63;;;;;;;25.17;49.11;99907.84;4991780;28;20030;-79
2023/08/29 01:04:19;;;;;;;24.13;7.32;;;;;;;25.25;49.26;99904.78;4991123;28;20065;-78
2023/08/29 01:06:45;;;;;;;16.92;6.80;;;;;;;25.26;49.00;99901.78;4991606;28;20022;-78
2023/08/29 01:09:11;;;;;;;25.98;6.78;;;;;;;25.27;49.16;99891.59;4991456;28;20418;-78
2023/08/29 01:11:48;;;;;;;13.73;7.40;;;;;;;25.33;49.96;99897.00;4992129;28;20049;-78
2023/08/29 01:14:35;;;;;;;11.45;6.78;;;;;;;25.34;50.84;99904.19;4991519;28;20113;-78
2023/08/29 01:17:12;;;;;;;16.67;7.20;;;;;;;25.25;52.99;99894.59;4999993;28;20029;-78
2023/08/29 01:19:40;;;;;;;14.95;7.28;;;;;;;25.27;53.35;99891.59;5010816;28;20116;-78
2023/08/29 01:22:13;;;;;;;14.13;8.00;;;;;;;25.31;53.87;99892.81;5010980;28;20033;-79
2023/08/29 01:24:46;;;;;;;15.85;7.22;;;;;;;25.33;54.33;99896.16;5010871;28;20044;-78
2023/08/29 01:27:12;;;;;;;16.60;7.60;;;;;;;25.30;54.21;99894.72;5001050;28;20041;-79
2023/08/29 01:29:39;;;;;;;20.35;7.80;;;;;;;25.29;54.39;99883.94;4991054;28;20037;-79
2023/08/29 01:32:05;;;;;;;27.40;8.07;;;;;;;25.22;54.25;99883.22;4990972;28;20108;-78
2023/08/29 01:34:32;;;;;;;23.40;7.15;;;;;;;25.14;54.08;99869.81;4990939;28;20498;-80
2023/08/29 01:36:57;;;;;;;22.95;6.93;;;;;;;25.11;53.94;99864.78;4991224;28;20181;-79
2023/08/29 01:39:24;;;;;;;33.78;8.65;;;;;;;25.09;53.32;99861.44;4994797;28;20113;-79
2023/08/29 01:41:49;;;;;;;14.90;7.00;;;;;;;25.17;52.58;99872.06;4992417;28;20065;-78
2023/08/29 01:44:15;;;;;;;11.82;6.10;;;;;;;25.16;53.27;99867.66;4991033;28;20432;-78
2023/08/29 01:46:40;;;;;;;15.45;6.72;;;;;;;25.10;53.54;99880.47;5002893;28;20490;-79
2023/08/29 01:49:06;;;;;;;20.52;7.93;;;;;;;25.07;53.85;99880.94;4968587;28;20076;-79
2023/08/29 01:51:32;;;;;;;22.83;7.97;;;;;;;24.95;53.67;99868.25;4969351;28;20487;-78
2023/08/29 01:53:57;;;;;;;19.50;7.45;;;;;;;25.00;53.80;99885.72;4969195;28;20065;-78
2023/08/29 01:56:25;;;;;;;18.55;7.75;;;;;;;25.01;54.44;99892.06;4964729;28;20405;-80
2023/08/29 01:58:54;;;;;;;15.82;6.75;;;;;;;24.94;55.04;99885.81;4949584;28;20574;-80
2023/08/29 02:01:20;;;;;;;17.55;7.05;;;;;;;24.84;54.78;99880.88;4964338;28;20450;-80
2023/08/29 02:03:45;;;;;;;22.23;7.60;;;;;;;24.81;54.78;99886.84;4949636;28;20055;-78
2023/08/29 02:06:11;;;;;;;16.10;6.70;;;;;;;24.81;54.73;99890.44;4950092;29;20455;-79
2023/08/29 02:08:37;;;;;;;16.75;7.25;;;;;;;24.81;54.39;99884.94;4949564;29;20519;-78
2023/08/29 02:11:03;;;;;;;11.88;6.03;;;;;;;24.77;54.46;99880.94;4950232;29;20035;-77
2023/08/29 02:13:28;;;;;;;18.15;6.18;;;;;;;24.76;54.01;99882.03;4958347;29;20054;-79
2023/08/29 02:15:53;;;;;;;18.92;7.43;;;;;;;24.76;53.85;99886.69;4976516;28;20086;-76
2023/08/29 02:18:20;;;;;;;15.45;7.10;;;;;;;24.72;53.60;99889.06;4976059;29;20090;-77
2023/08/29 02:20:46;;;;;;;14.30;6.70;;;;;;;24.64;53.49;99883.91;5003975;28;20050;-80
2023/08/29 02:23:11;;;;;;;19.02;7.43;;;;;;;24.71;53.32;99892.88;5008406;28;20023;-77
2023/08/29 02:25:36;;;;;;;16.17;6.85;;;;;;;24.73;52.88;99898.16;5009953;28;20030;-80
2023/08/29 02:28:02;;;;;;;17.77;5.70;;;;;;;24.74;52.47;99897.91;5005871;28;20028;-78
2023/08/29 02:30:27;;;;;;;11.63;6.32;;;;;;;24.73;52.24;99901.75;4995165;28;20052;-79
2023/08/29 02:32:53;;;;;;;17.25;7.45;;;;;;;24.77;51.99;99900.19;4995421;28;20030;-78
2023/08/29 02:35:18;;;;;;;17.25;6.53;;;;;;;24.66;51.82;99881.75;4990156;28;20023;-81
2023/08/29 02:37:43;;;;;;;39.22;9.82;;;;;;;24.69;51.51;99877.69;4990183;28;20029;-79
2023/08/29 02:40:09;;;;;;;25.50;7.85;;;;;;;24.67;51.68;99883.44;4989958;28;20505;-79
2023/08/29 02:42:36;;;;;;;17.50;7.18;;;;;;;24.66;51.72;99884.50;4990013;28;20023;-77
2023/08/29 02:45:03;;;;;;;20.90;8.10;;;;;;;24.77;51.03;99891.09;4998191;28;20037;-79
2023/08/29 02:47:28;;;;;;;19.63;7.20;;;;;;;24.79;51.00;99889.81;5009560;28;20037;-77
2023/08/29 02:49:55;;;;;;;24.40;7.80;;;;;;;24.80;50.96;99896.97;5009391;28;20030;-78
2023/08/29 02:52:20;;;;;;;13.48;7.93;;;;;;;24.68;51.05;99890.59;5009279;28;20113;-78
2023/08/29 02:54:46;;;;;;;23.23;7.35;;;;;;;24.76;50.90;99890.28;5009122;28;20138;-78
2023/08/29 02:57:11;;;;;;;21.90;7.18;;;;;;;24.81;50.53;99886.84;5009283;28;20018;-79
2023/08/29 02:59:37;;;;;;;15.95;6.88;;;;;;;24.82;50.62;99888.53;5001044;28;20041;-79
2023/08/29 03:02:03;;;;;;;16.88;6.93;;;;;;;24.84;50.08;99881.72;4989602;28;20034;-78
2023/08/29 03:04:30;;;;;;;16.00;7.65;;;;;;;24.86;49.86;99882.31;4939150;28;20057;-80
2023/08/29 03:06:55;;;;;;;18.73;7.03;;;;;;;24.90;49.59;99880.78;4989566;28;20035;-81
2023/08/29 03:09:21;;;;;;;15.73;7.78;;;;;;;24.92;49.47;99872.31;4989309;28;20042;-78
2023/08/29 03:11:46;;;;;;;20.10;7.43;;;;;;;24.98;49.35;99878.78;4989372;28;20034;-81
2023/08/29 03:14:12;;;;;;;23.77;7.20;;;;;;;24.97;49.09;99864.16;4993330;28;20109;-79
2023/08/29 03:16:37;;;;;;;32.33;8.48;;;;;;;24.99;49.31;99873.00;5009026;28;20355;-79
2023/08/29 03:19:03;;;;;;;30.95;8.75;;;;;;;25.03;49.48;99870.63;5009418;28;20025;-79
2023/08/29 03:21:28;;;;;;;30.15;8.25;;;;;;;24.99;49.74;99858.41;5009346;28;20030;-79
2023/08/29 03:23:54;;;;;;;31.55;9.07;;;;;;;24.95;50.02;99859.97;5015850;28;20029;-80
2023/08/29 03:26:19;;;;;;;29.90;9.23;;;;;;;24.93;50.27;99865.72;5014260;28;20490;-79
2023/08/29 03:28:45;;;;;;;36.80;12.18;;;;;;;24.72;50.30;99844.22;5010272;28;20033;-79
2023/08/29 03:31:16;;;;;;;65.38;10.48;;;;;;;24.93;50.32;99879.47;4993571;28;20496;-80
2023/08/29 03:33:43;;;;;;;44.55;11.55;;;;;;;24.87;50.86;99881.25;4998667;28;20087;-80
2023/08/29 03:36:09;;;;;;;41.47;14.00;;;;;;;24.92;51.13;99879.72;4968373;28;20054;-80
2023/08/29 03:38:39;;;;;;;58.38;22.48;;;;;;;25.00;51.15;99890.38;5001424;28;21502;-78
2023/08/29 03:41:06;;;;;;;76.50;32.55;;;;;;;24.95;51.35;99879.25;5003010;28;20030;-77
2023/08/29 03:43:33;;;;;;;93.55;36.65;;;;;;;24.89;52.00;99887.34;5001090;28;20037;-79
2023/08/29 03:46:07;;;;;;;62.22;34.75;;;;;;;24.88;52.39;99882.94;5000958;28;20029;-79
2023/08/29 03:48:34;;;;;;;74.57;37.67;;;;;;;24.81;53.11;99876.69;4998298;28;20477;-78
2023/08/29 03:51:05;;;;;;;89.80;38.28;;;;;;;24.80;53.60;99883.22;5001471;28;20081;-83
2023/08/29 03:53:31;;;;;;;92.77;39.47;;;;;;;24.74;53.96;99881.41;5003237;28;20034;-84
2023/08/29 03:56:00;;;;;;;108.00;42.05;;;;;;;24.78;54.26;99885.38;5004342;28;20326;-84
2023/08/29 03:58:26;;;;;;;99.15;45.15;;;;;;;24.70;54.61;99884.88;5003340;28;20026;-83
2023/08/29 04:00:53;;;;;;;97.50;46.40;;;;;;;24.74;54.94;99888.81;4997449;28;20521;-85
2023/08/29 04:03:19;;;;;;;109.28;46.40;;;;;;;24.73;54.89;99873.41;4976200;28;20058;-85
2023/08/29 04:05:46;;;;;;;105.38;45.55;;;;;;;24.71;55.13;99875.53;4993465;28;20113;-84
2023/08/29 04:08:11;;;;;;;92.82;43.20;;;;;;;24.71;55.25;99870.88;4993042;28;20034;-83
2023/08/29 04:10:38;;;;;;;121.18;43.53;;;;;;;24.78;55.03;99876.28;4993339;28;20057;-83
2023/08/29 04:13:04;;;;;;;101.45;42.72;;;;;;;24.77;55.26;99869.94;4995924;28;20108;-82
2023/08/29 04:15:30;;;;;;;116.53;42.40;;;;;;;24.76;55.17;99873.78;5011976;28;20029;-82
2023/08/29 04:17:56;;;;;;;104.50;41.35;;;;;;;24.72;55.41;99878.06;5006981;28;20025;-83
2023/08/29 04:20:22;;;;;;;87.93;36.95;;;;;;;24.68;55.39;99882.34;4998794;28;20453;-85
2023/08/29 04:22:48;;;;;;;93.35;37.60;;;;;;;24.77;55.22;99869.09;4992456;28;20031;-80
2023/08/29 04:25:13;;;;;;;82.68;30.35;;;;;;;24.83;55.17;99871.78;4992293;28;20027;-80
2023/08/29 04:27:40;;;;;;;67.47;23.08;;;;;;;24.82;55.00;99863.78;4992162;28;20062;-80
2023/08/29 04:30:06;;;;;;;86.50;24.33;;;;;;;24.84;54.33;99862.47;4992627;28;20045;-87
2023/08/29 04:32:34;;;;;;;83.88;25.77;;;;;;;24.94;54.18;99869.31;4992387;28;20490;-83
2023/08/29 04:35:00;;;;;;;95.93;23.38;;;;;;;24.95;54.64;99876.50;4996236;28;20101;-79
2023/08/29 04:37:25;;;;;;;76.43;22.90;;;;;;;25.04;54.15;99872.31;4974179;28;20036;-79
2023/08/29 04:39:51;;;;;;;118.32;23.77;;;;;;;24.89;53.93;99835.06;4991935;28;20027;-81
2023/08/29 04:42:16;;;;;;;80.78;18.65;;;;;;;25.18;53.86;99865.50;4993153;28;20402;-84
2023/08/29 04:44:42;;;;;;;62.35;17.33;;;;;;;25.22;53.70;99872.22;4993944;28;20125;-83
2023/08/29 04:47:07;;;;;;;100.45;19.15;;;;;;;25.27;53.82;99866.81;4992659;28;20042;-83
2023/08/29 04:49:34;;;;;;;86.22;16.05;;;;;;;25.36;53.58;99870.91;4993203;28;20116;-83
2023/08/29 04:52:00;;;;;;;95.65;18.35;;;;;;;25.36;53.65;99852.47;4992215;28;20031;-82
2023/08/29 04:54:26;;;;;;;87.28;23.05;;;;;;;25.51;53.53;99865.78;4992388;28;20037;-81
2023/08/29 04:56:51;;;;;;;105.15;30.45;;;;;;;25.58;53.67;99871.16;4991786;28;20035;-83
2023/08/29 04:59:17;;;;;;;111.70;32.90;;;;;;;25.63;54.03;99874.88;4989269;28;20030;-81
2023/08/29 05:01:42;;;;;;;105.30;34.22;;;;;;;25.64;53.94;99872.97;5011424;28;20406;-83
2023/08/29 05:04:08;;;;;;;100.50;37.22;;;;;;;25.63;54.06;99869.38;5011362;28;20049;-84
2023/08/29 05:06:34;;;;;;;85.38;35.72;;;;;;;25.64;54.18;99876.56;5011419;28;20080;-81
2023/08/29 05:08:59;;;;;;;92.85;34.30;;;;;;;25.69;54.37;99879.41;5015376;28;20701;-84
2023/08/29 05:11:25;;;;;;;86.45;35.22;;;;;;;25.77;53.89;99875.47;5014303;28;20033;-84
2023/08/29 05:13:50;;;;;;;101.70;35.38;;;;;;;25.78;54.25;99871.63;5011457;28;20049;-84
2023/08/29 05:16:15;;;;;;;118.00;36.08;;;;;;;25.82;54.32;99879.16;5012380;28;20517;-83
2023/08/29 05:18:41;;;;;;;100.07;36.53;;;;;;;25.90;54.28;99875.22;5011869;28;20034;-84
2023/08/29 05:21:06;;;;;;;109.95;35.83;;;;;;;25.96;53.86;99874.25;5011099;28;20022;-83
2023/08/29 05:23:32;;;;;;;86.18;33.08;;;;;;;26.08;53.97;99882.47;4960104;28;20125;-82
2023/08/29 05:25:57;;;;;;;85.75;32.25;;;;;;;26.13;53.80;99874.31;5011178;28;20033;-83
2023/08/29 05:28:22;;;;;;;81.28;31.67;;;;;;;26.25;53.39;99869.63;4998855;28;20034;-80
2023/08/29 05:30:48;;;;;;;76.93;26.65;;;;;;;26.35;53.40;99867.06;4973091;28;20042;-81
2023/08/29 05:33:13;;;;;;;72.22;28.52;;;;;;;26.35;52.87;99850.53;4991637;28;20041;-85
2023/08/29 05:35:39;;;;;;;76.03;26.77;;;;;;;26.57;52.84;99868.06;4993771;28;20026;-82
2023/08/29 05:38:04;;;;;;;85.15;27.15;;;;;;;26.68;52.78;99856.13;5000758;28;20042;-83
2023/08/29 05:40:29;;;;;;;128.32;29.35;;;;;;;26.76;52.58;99858.47;4991108;28;20406;-83
2023/08/29 05:42:55;;;;;;;72.63;25.10;;;;;;;26.82;52.39;99846.47;4991842;28;20036;-83
2023/08/29 05:45:20;;;;;;;70.05;22.13;;;;;;;27.07;52.15;99875.56;4993620;28;20383;-84
2023/08/29 05:47:46;;;;;;;46.85;17.45;;;;;;;27.16;50.77;99869.41;4992507;28;20035;-84
2023/08/29 05:50:11;;;;;;;48.58;14.73;;;;;;;27.16;50.01;99849.22;4991473;28;20029;-83
2023/08/29 05:52:37;;;;;;;62.03;15.77;;;;;;;27.38;49.64;99864.78;4992273;28;20029;-82
2023/08/29 05:55:03;;;;;;;51.92;18.13;;;;;;;27.50;49.30;99873.00;4992869;28;20080;-83
2023/08/29 05:57:29;;;;;;;59.22;19.55;;;;;;;27.50;48.43;99848.97;5005477;28;20124;-84
2023/08/29 05:59:54;;;;;;;57.72;19.25;;;;;;;27.67;48.57;99861.94;4956496;28;20054;-84
2023/08/29 06:02:20;;;;;;;68.40;20.08;;;;;;;27.81;48.26;99866.84;4991069;28;20035;-83
2023/08/29 06:04:47;;;;;;;68.45;22.65;;;;;;;27.76;48.36;99850.19;4995254;28;20141;-85
2023/08/29 06:07:13;;;;;;;55.25;19.05;;;;;;;27.96;48.00;99872.56;5003873;28;20061;-81
2023/08/29 06:09:38;;;;;;;69.13;21.92;;;;;;;28.08;48.14;99876.06;5012340;28;20152;-84
2023/08/29 06:12:06;;;;;;;51.70;19.02;;;;;;;28.03;48.10;99847.50;5013472;28;20026;-84
2023/08/29 06:14:31;;;;;;;73.03;20.05;;;;;;;28.20;48.08;99864.03;4995041;28;20517;-83
2023/08/29 06:16:57;;;;;;;89.55;19.67;;;;;;;28.39;47.82;99870.91;4991443;28;20026;-83
2023/08/29 06:19:22;;;;;;;59.53;17.00;;;;;;;28.36;47.72;99849.28;4990834;28;20030;-83
2023/08/29 06:21:48;;;;;;;48.53;17.52;;;;;;;28.54;47.41;99855.31;4992359;28;20034;-86
2023/08/29 06:24:14;;;;;;;74.22;17.40;;;;;;;28.69;47.41;99862.94;5003451;28;20569;-82
2023/08/29 06:26:40;;;;;;;97.03;24.65;;;;;;;28.68;47.26;99833.63;4990743;28;20719;-82
2023/08/29 06:29:05;;;;;;;50.15;16.45;;;;;;;28.95;46.52;99864.03;4990480;28;20030;-82
2023/08/29 06:31:31;;;;;;;75.63;16.33;;;;;;;29.05;46.61;99861.38;4994554;28;20367;-85
2023/08/29 06:33:57;;;;;;;52.15;15.93;;;;;;;29.16;46.04;99869.50;4999558;28;20030;-81
2023/08/29 06:36:22;;;;;;;72.80;14.35;;;;;;;29.26;46.04;99868.78;5010241;28;20053;-83
2023/08/29 06:38:48;;;;;;;71.80;16.77;;;;;;;29.38;45.60;99866.66;4958908;28;20125;-84
2023/08/29 06:41:13;;;;;;;69.22;20.67;;;;;;;29.36;45.00;99845.81;5010175;28;20080;-84
2023/08/29 06:43:39;;;;;;;62.90;22.40;;;;;;;29.66;44.77;99874.56;4996404;28;20038;-82
2023/08/29 06:46:04;;;;;;;62.95;15.18;;;;;;;29.79;44.29;99866.88;4990007;28;21100;-83
2023/08/29 06:48:30;;;;;;;63.00;14.23;;;;;;;29.86;43.79;99862.81;4991246;28;20451;-82
2023/08/29 06:50:55;;;;;;;28.10;9.18;;;;;;;29.89;42.87;99850.34;4990786;28;20109;-81
2023/08/29 06:53:22;;;;;;;27.60;11.65;;;;;;;30.09;42.91;99867.91;4993881;28;20423;-84
2023/08/29 06:55:47;;;;;;;66.35;11.68;;;;;;;30.22;43.10;99866.56;4993767;28;20552;-83
2023/08/29 06:58:13;;;;;;;48.50;11.77;;;;;;;30.19;43.01;99840.22;4995523;28;20026;-84
2023/08/29 07:00:38;;;;;;;48.65;11.77;;;;;;;30.44;42.71;99863.63;4994189;28;20129;-82
2023/08/29 07:03:04;;;;;;;39.58;12.23;;;;;;;30.46;42.83;99839.19;4962125;28;20038;-79
2023/08/29 07:05:29;;;;;;;29.30;10.63;;;;;;;30.65;42.01;99859.78;5015113;28;20030;-83
2023/08/29 07:07:55;;;;;;;39.38;9.38;;;;;;;30.75;41.02;99855.09;5015553;28;20038;-78
2023/08/29 07:10:21;;;;;;;20.10;9.73;;;;;;;30.84;40.71;99858.16;5015235;28;20110;-78
2023/08/29 07:12:48;;;;;;;28.02;9.52;;;;;;;30.92;40.47;99856.75;5016135;28;20038;-78
2023/08/29 07:15:14;;;;;;;21.60;8.43;;;;;;;30.99;40.26;99852.66;5014600;28;20086;-81
2023/08/29 07:17:39;;;;;;;35.03;8.82;;;;;;;31.05;40.09;99848.75;4994592;28;20108;-84
2023/08/29 07:20:08;;;;;;;30.88;9.30;;;;;;;31.12;39.69;99838.22;4994888;28;20038;-83
2023/08/29 07:22:43;;;;;;;41.25;9.63;;;;;;;31.24;40.32;99849.88;5002510;28;20030;-81
2023/08/29 07:25:10;;;;;;;29.88;8.23;;;;;;;31.31;39.87;99859.88;4998393;28;20031;-83
2023/08/29 07:27:35;;;;;;;33.28;8.90;;;;;;;31.36;39.70;99848.72;4989615;28;20069;-81
2023/08/29 07:30:01;;;;;;;22.55;9.93;;;;;;;31.31;39.58;99835.69;5004821;28;20391;-85
2023/08/29 07:32:27;;;;;;;41.35;9.38;;;;;;;31.54;39.70;99856.53;4992089;28;20091;-84
2023/08/29 07:34:52;;;;;;;24.77;8.07;;;;;;;31.63;39.45;99850.09;5009257;28;20449;-84
2023/08/29 07:37:18;;;;;;;25.70;8.25;;;;;;;31.67;38.98;99850.38;5009185;28;20042;-83
2023/08/29 07:39:43;;;;;;;34.83;10.73;;;;;;;31.64;39.07;99853.72;5008884;28;20048;-83
2023/08/29 07:42:09;;;;;;;30.02;9.70;;;;;;;31.68;39.33;99852.06;5006770;28;20532;-82
2023/08/29 07:44:34;;;;;;;32.00;10.43;;;;;;;31.67;40.18;99856.78;4971777;28;20454;-83
2023/08/29 07:47:01;;;;;;;28.83;9.35;;;;;;;31.50;40.00;99834.00;5002009;28;20033;-82
2023/08/29 07:49:27;;;;;;;21.42;8.48;;;;;;;31.66;39.44;99851.50;5008894;28;20021;-83
2023/08/29 07:51:53;;;;;;;32.35;9.20;;;;;;;31.65;39.71;99853.44;5009060;28;20030;-85
2023/08/29 07:54:19;;;;;;;21.63;8.90;;;;;;;31.59;40.30;99849.00;5009029;28;20112;-84
2023/08/29 07:56:45;;;;;;;26.73;8.77;;;;;;;31.67;39.80;99861.50;4973778;28;20096;-84
2023/08/29 07:59:10;;;;;;;22.77;8.13;;;;;;;31.55;41.24;99830.41;5008878;28;20135;-85
2023/08/29 08:01:36;;;;;;;24.92;9.30;;;;;;;31.78;42.87;99857.56;5001450;28;20030;-84
2023/08/29 08:04:03;;;;;;;20.75;9.52;;;;;;;31.82;44.39;99861.47;5001061;28;20050;-85
2023/08/29 08:06:31;;;;;;;37.83;10.25;;;;;;;31.74;45.18;99851.75;4989644;28;20058;-85
2023/08/29 08:08:57;;;;;;;53.60;10.82;;;;;;;31.75;46.41;99852.56;4989729;28;20054;-84
2023/08/29 08:11:23;;;;;;;59.05;10.15;;;;;;;31.83;46.09;99854.78;4989537;28;20094;-82
2023/08/29 08:13:49;;;;;;;42.75;11.52;;;;;;;31.85;46.75;99848.94;4990966;28;20089;-82
2023/08/29 08:16:14;;;;;;;25.65;10.45;;;;;;;31.87;48.01;99858.66;4993275;28;20033;-83
2023/08/29 08:18:40;;;;;;;42.22;10.80;;;;;;;31.90;48.23;99858.09;5004144;28;20042;-82
2023/08/29 08:21:05;;;;;;;30.10;10.23;;;;;;;31.83;47.92;99867.88;5005225;28;20388;-84
2023/08/29 08:23:31;;;;;;;39.05;10.80;;;;;;;31.90;47.71;99869.22;4961078;28;20054;-81
2023/08/29 08:25:56;;;;;;;40.70;11.40;;;;;;;31.99;47.82;99853.59;5009579;28;20029;-84
2023/08/29 08:28:22;;;;;;;28.75;10.32;;;;;;;31.98;46.32;99851.97;4999078;28;20470;-83
2023/08/29 08:30:48;;;;;;;40.15;9.85;;;;;;;31.65;45.15;99833.97;5012062;28;20018;-85
2023/08/29 08:33:13;;;;;;;35.55;9.18;;;;;;;31.70;45.86;99853.44;5012443;28;20088;-84
2023/08/29 08:35:39;;;;;;;26.50;9.57;;;;;;;31.67;47.49;99850.38;4979530;28;20037;-83
2023/08/29 08:38:07;;;;;;;23.50;8.50;;;;;;;31.61;46.85;99846.78;5001998;28;20400;-82
2023/08/29 08:40:34;;;;;;;25.55;9.25;;;;;;;31.50;47.07;99833.16;4999313;28;20024;-80
2023/08/29 08:43:04;;;;;;;23.95;7.75;;;;;;;31.66;45.89;99835.66;4996490;28;20457;-80
2023/08/29 08:45:30;;;;;;;34.97;9.38;;;;;;;31.67;45.67;99823.41;4997127;28;20392;-78
2023/08/29 08:47:58;;;;;;;31.42;8.20;;;;;;;31.76;42.86;99826.44;4991971;28;20125;-80
2023/08/29 08:50:25;;;;;;;21.63;7.80;;;;;;;31.88;43.90;99840.03;4995381;28;20041;-79
2023/08/29 08:52:51;;;;;;;22.33;7.35;;;;;;;31.85;44.49;99847.00;4992205;28;20506;-79
2023/08/29 08:55:17;;;;;;;33.13;8.65;;;;;;;31.79;45.73;99842.56;4941299;28;20058;-80
2023/08/29 08:57:43;;;;;;;23.45;7.05;;;;;;;31.90;43.71;99854.47;4992487;28;20022;-81
2023/08/29 09:00:09;;;;;;;26.35;6.97;;;;;;;31.69;44.19;99846.19;5003049;28;20045;-81
2023/08/29 09:02:37;;;;;;;26.65;7.28;;;;;;;31.77;41.31;99861.50;4992180;28;20509;-80
2023/08/29 09:05:03;;;;;;;21.48;6.65;;;;;;;31.73;43.98;99838.13;4995087;28;20053;-81
2023/08/29 09:07:28;;;;;;;45.05;9.20;;;;;;;31.98;44.04;99854.75;4991876;28;20018;-79
2023/08/29 09:10:12;;;;;;;23.52;7.05;;;;;;;32.05;43.15;99846.94;4995514;28;20026;-81
2023/08/29 09:12:55;;;;;;;63.58;9.25;;;;;;;32.07;43.84;99855.84;4992784;28;20061;-80
2023/08/29 09:15:21;;;;;;;26.90;8.00;;;;;;;32.08;42.85;99849.16;4991906;28;20379;-83
2023/08/29 09:17:51;;;;;;;16.35;6.25;;;;;;;31.99;43.31;99852.78;4964546;28;20042;-81
2023/08/29 09:20:18;;;;;;;14.40;5.80;;;;;;;31.97;45.21;99844.72;5010907;28;20088;-80
2023/08/29 09:22:45;;;;;;;16.52;6.63;;;;;;;32.01;42.43;99850.56;5006947;28;20026;-84
2023/08/29 09:25:11;;;;;;;16.65;5.90;;;;;;;32.05;44.22;99851.69;5006139;28;20112;-81
2023/08/29 09:27:48;;;;;;;18.92;6.60;;;;;;;32.10;44.98;99848.88;5001898;28;20121;-80
2023/08/29 09:30:15;;;;;;;23.85;7.47;;;;;;;32.24;42.46;99861.88;5010476;28;20034;-81
2023/08/29 09:32:48;;;;;;;16.42;6.78;;;;;;;32.34;41.52;99864.63;5006049;28;20105;-80
2023/08/29 09:35:16;;;;;;;13.60;5.80;;;;;;;32.37;42.45;99859.59;5002474;28;20061;-81
2023/08/29 09:37:50;;;;;;;19.73;6.68;;;;;;;32.43;41.46;99861.22;4992650;28;20030;-80
2023/08/29 09:40:20;;;;;;;12.45;5.97;;;;;;;32.47;39.69;99860.38;4991754;28;20053;-79
2023/08/29 09:42:58;;;;;;;20.35;7.18;;;;;;;32.44;37.93;99854.56;4982150;28;20029;-78
2023/08/29 09:45:24;;;;;;;20.17;7.25;;;;;;;32.45;37.46;99845.06;5011366;28;20037;-80
2023/08/29 09:47:54;;;;;;;21.90;6.15;;;;;;;32.54;37.51;99841.38;5010264;28;20430;-80
2023/08/29 09:50:21;;;;;;;11.23;6.47;;;;;;;32.50;37.55;99833.91;5002440;28;20038;-78
2023/08/29 09:52:48;;;;;;;25.17;7.07;;;;;;;32.48;39.18;99834.19;4956817;28;20041;-81
2023/08/29 09:55:17;;;;;;;17.75;5.38;;;;;;;32.56;39.10;99844.78;5010953;28;20037;-79
2023/08/29 09:57:44;;;;;;;12.00;5.50;;;;;;;32.66;39.53;99835.53;5010514;28;20037;-79
2023/08/29 10:00:12;;;;;;;10.90;4.70;;;;;;;32.68;37.45;99844.41;5008666;28;20046;-79
2023/08/29 10:02:40;;;;;;;12.15;5.43;;;;;;;32.81;38.62;99832.63;5010491;28;20030;-80
2023/08/29 10:05:09;;;;;;;13.35;4.43;;;;;;;32.78;36.49;99828.44;5010589;28;20430;-80
2023/08/29 10:07:42;;;;;;;25.70;6.72;;;;;;;32.75;39.03;99829.03;5011842;28;20505;-79
2023/08/29 10:10:09;;;;;;;21.58;5.13;;;;;;;32.91;38.94;99826.97;5010426;28;20087;-81
2023/08/29 10:12:35;;;;;;;25.63;5.88;;;;;;;32.93;38.64;99824.72;4999137;28;20034;-80
2023/08/29 10:15:03;;;;;;;25.88;6.05;;;;;;;32.95;37.15;99818.84;4990969;28;20058;-79
2023/08/29 10:17:31;;;;;;;21.13;5.30;;;;;;;32.93;38.66;99830.31;4991393;28;20045;-79
2023/08/29 10:20:08;;;;;;;15.93;5.50;;;;;;;32.81;39.57;99805.56;4997380;28;20034;-79
2023/08/29 10:22:34;;;;;;;29.45;8.77;;;;;;;32.90;40.67;99811.38;4997223;28;20022;-79
2023/08/29 10:25:01;;;;;;;24.15;7.30;;;;;;;33.04;42.55;99804.00;4991525;28;20050;-79
2023/08/29 10:27:27;;;;;;;28.58;6.90;;;;;;;33.11;40.67;99804.53;4991495;28;20042;-78
2023/08/29 10:29:53;;;;;;;15.75;5.35;;;;;;;33.29;39.46;99817.75;4956203;28;20046;-79
2023/08/29 10:32:20;;;;;;;28.60;6.18;;;;;;;33.27;39.28;99819.97;4990867;28;20088;-78
2023/08/29 10:34:45;;;;;;;26.65;7.20;;;;;;;33.35;39.11;99827.72;4990490;28;20025;-80
2023/08/29 10:37:18;;;;;;;37.72;6.00;;;;;;;33.37;38.78;99819.88;4989972;28;20026;-78
2023/08/29 10:39:44;;;;;;;17.17;5.47;;;;;;;33.57;35.33;99813.28;4991076;28;20038;-79
2023/08/29 10:42:13;;;;;;;12.32;4.88;;;;;;;33.72;34.93;99795.56;4998402;28;20399;-81
2023/08/29 10:44:42;;;;;;;25.83;5.70;;;;;;;34.00;34.19;99808.59;4992397;28;20454;-80
2023/08/29 10:47:30;;;;;;;24.40;6.05;;;;;;;34.00;33.49;99810.56;4990124;28;20026;-81
2023/08/29 10:50:07;;;;;;;101.22;8.48;;;;;;;34.14;33.62;99811.50;4990064;28;20109;-79
2023/08/29 10:52:41;;;;;;;19.88;5.63;;;;;;;34.17;33.38;99806.16;5002392;28;20091;-79
2023/08/29 10:55:19;;;;;;;15.10;6.18;;;;;;;34.15;33.71;99819.59;5009654;28;20037;-80
2023/08/29 10:57:44;;;;;;;22.58;5.97;;;;;;;34.27;34.07;99813.56;5010048;28;20030;-79
2023/08/29 11:00:39;;;;;;;21.13;5.80;;;;;;;34.27;33.41;99806.03;5003643;28;20486;-81
2023/08/29 11:03:05;;;;;;;32.92;8.73;;;;;;;34.11;34.07;99804.56;5009082;28;20037;-79
2023/08/29 11:05:30;;;;;;;17.45;5.95;;;;;;;34.10;35.00;99794.53;4975043;28;20038;-78
2023/08/29 11:08:19;;;;;;;22.48;6.38;;;;;;;34.10;36.18;99802.91;4994014;28;20494;-79
2023/08/29 11:11:13;;;;;;;29.77;6.82;;;;;;;34.17;36.15;99800.59;5001779;28;20026;-80
2023/08/29 11:13:58;;;;;;;13.60;5.80;;;;;;;34.02;34.12;99800.75;4990418;28;20057;-79
2023/08/29 11:16:28;;;;;;;26.73;7.00;;;;;;;34.16;34.79;99804.50;4989966;28;20069;-79
2023/08/29 11:19:11;;;;;;;32.50;7.32;;;;;;;34.01;34.99;99801.88;4999906;28;20518;-79
2023/08/29 11:21:36;;;;;;;37.45;8.65;;;;;;;34.13;36.33;99807.88;4990049;28;20113;-79